Time;durP1;ratioP1;P1;durP2;ratioP2;P2;SDS_P1;SDS_P2;PMS_P1;PMS_P2;Temp;Humidity;BMP_temperature;BMP_pressure;BME280_temperature;BME280_humidity;BME280_pressure;Samples;Min_cycle;Max_cycle;Signal;HPM_P1;HPM_P2
2022/12/17 13:06:11;;;;;;;0.90;0.85;;;;;;;1.35;89.28;100996.69;5085353;28;20059;-67
2022/12/17 13:08:37;;;;;;;0.60;0.60;;;;;;;1.30;89.23;100986.28;5084097;28;20020;-67
2022/12/17 13:11:24;;;;;;;0.73;0.73;;;;;;;1.34;89.30;100988.13;5085311;28;20182;-69
2022/12/17 13:13:56;;;;;;;0.60;0.60;;;;;;;1.38;89.24;100994.25;5085535;28;20024;-67
2022/12/17 13:16:36;;;;;;;0.80;0.80;;;;;;;1.41;89.26;100996.94;5085472;28;20021;-67
2022/12/17 13:19:17;;;;;;;0.50;0.50;;;;;;;1.40;89.29;100987.53;5085463;28;20096;-68
2022/12/17 13:21:42;;;;;;;0.65;0.63;;;;;;;1.40;89.37;100992.63;5085594;28;20283;-68
2022/12/17 13:24:12;;;;;;;1.33;1.33;;;;;;;1.42;89.33;100987.59;5085176;28;20326;-68
2022/12/17 13:26:40;;;;;;;0.50;0.50;;;;;;;1.45;89.24;100986.00;5085213;28;20055;-67
2022/12/17 13:29:19;;;;;;;0.70;0.70;;;;;;;1.48;89.27;100988.69;5085606;28;20021;-67
2022/12/17 13:31:51;;;;;;;0.65;0.65;;;;;;;1.54;89.02;100994.84;5085501;28;20028;-68
2022/12/17 13:34:28;;;;;;;0.50;0.50;;;;;;;1.45;89.08;100975.75;5085310;28;20060;-68
2022/12/17 13:37:08;;;;;;;0.82;0.82;;;;;;;1.51;88.97;100994.72;5085452;28;20028;-67
2022/12/17 13:39:56;;;;;;;4.35;4.15;;;;;;;1.52;89.04;100976.03;5085091;28;20029;-68
2022/12/17 13:42:28;;;;;;;0.80;0.80;;;;;;;1.54;88.88;100987.16;5085249;28;20103;-70
2022/12/17 13:44:55;;;;;;;0.57;0.57;;;;;;;1.48;88.96;100992.94;5085225;28;20059;-69
2022/12/17 13:47:33;;;;;;;0.50;0.50;;;;;;;1.50;88.95;100993.88;5085162;28;20150;-68
2022/12/17 13:50:01;;;;;;;0.50;0.50;;;;;;;1.48;88.95;100991.25;5085394;28;20020;-68
2022/12/17 13:52:28;;;;;;;1.15;1.15;;;;;;;1.55;88.75;100996.59;5085076;28;20047;-68
2022/12/17 13:55:06;;;;;;;0.50;0.50;;;;;;;1.44;88.98;100985.94;5084885;28;20047;-66
2022/12/17 13:57:31;;;;;;;1.45;1.35;;;;;;;1.54;88.78;100994.84;5085198;28;20016;-68
2022/12/17 13:59:58;;;;;;;0.73;0.73;;;;;;;1.53;88.86;101004.22;5085021;28;20054;-67
2022/12/17 14:02:28;;;;;;;0.82;0.80;;;;;;;1.48;88.99;101006.63;5085171;28;20035;-67
2022/12/17 14:04:55;;;;;;;0.50;0.50;;;;;;;1.55;88.79;101006.84;5084998;28;20379;-68
2022/12/17 14:07:22;;;;;;;1.95;1.85;;;;;;;1.52;88.72;100992.22;5084897;28;20048;-67
2022/12/17 14:09:48;;;;;;;0.60;0.60;;;;;;;1.56;88.79;100990.66;5084711;28;20047;-67
2022/12/17 14:12:22;;;;;;;0.60;0.60;;;;;;;1.59;88.57;100998.47;5086949;28;20028;-67
2022/12/17 14:14:54;;;;;;;1.15;1.15;;;;;;;1.54;88.66;100999.97;5088720;28;20093;-67
2022/12/17 14:17:47;;;;;;;0.60;0.60;;;;;;;1.56;88.58;101003.47;5087467;28;20025;-69
2022/12/17 14:20:15;;;;;;;0.52;0.52;;;;;;;1.59;88.76;101008.69;5085374;28;20095;-69
2022/12/17 14:22:44;;;;;;;0.75;0.75;;;;;;;1.39;88.86;100970.41;5088618;28;20063;-68
2022/12/17 14:25:19;;;;;;;0.50;0.50;;;;;;;1.57;88.84;100995.84;5087022;28;20099;-68
2022/12/17 14:28:00;;;;;;;2.78;2.60;;;;;;;1.63;88.69;101004.56;5088569;28;20021;-68
2022/12/17 14:30:31;;;;;;;0.60;0.60;;;;;;;1.59;88.83;101007.03;5088518;28;20060;-68
2022/12/17 14:32:57;;;;;;;1.65;1.55;;;;;;;1.58;88.65;101006.97;5088535;28;20076;-69
2022/12/17 14:35:23;;;;;;;0.50;0.50;;;;;;;1.62;88.80;101013.94;5088416;28;20032;-68
2022/12/17 14:37:48;;;;;;;0.50;0.50;;;;;;;1.60;88.77;101025.78;5088532;28;20013;-70
2022/12/17 14:40:14;;;;;;;0.85;0.85;;;;;;;1.63;88.59;101007.13;5088066;28;20028;-68
2022/12/17 14:42:40;;;;;;;0.80;0.80;;;;;;;1.58;88.74;100999.28;5087033;28;20031;-69
2022/12/17 14:45:21;;;;;;;0.60;0.60;;;;;;;1.63;88.76;101005.44;5088324;28;20028;-68
2022/12/17 14:47:55;;;;;;;0.70;0.70;;;;;;;1.64;88.72;101007.19;5086976;28;20020;-68
2022/12/17 14:50:20;;;;;;;2.28;2.17;;;;;;;1.67;88.72;101015.00;5088002;28;20128;-67
2022/12/17 14:52:48;;;;;;;0.50;0.50;;;;;;;1.66;88.63;101018.34;5086774;28;20016;-68
2022/12/17 14:55:31;;;;;;;0.50;0.50;;;;;;;1.67;88.58;101009.88;5087723;28;20063;-68
2022/12/17 14:58:15;;;;;;;0.90;0.90;;;;;;;1.73;88.48;101016.91;5088029;28;20084;-67
2022/12/17 15:00:42;;;;;;;1.00;1.00;;;;;;;1.77;88.46;101017.88;5086453;28;20139;-68
2022/12/17 15:03:16;;;;;;;2.15;2.05;;;;;;;1.73;88.44;101020.34;5087880;28;20512;-69
2022/12/17 15:05:41;;;;;;;0.50;0.50;;;;;;;1.71;88.41;101011.72;5087874;28;20130;-69
2022/12/17 15:08:07;;;;;;;0.50;0.50;;;;;;;1.71;88.53;101008.31;5087905;28;20024;-68
2022/12/17 15:10:32;;;;;;;1.08;1.08;;;;;;;1.70;88.40;101012.53;5087592;28;20088;-69
2022/12/17 15:12:58;;;;;;;0.50;0.50;;;;;;;1.70;88.55;101025.34;5087770;28;20028;-69
2022/12/17 15:15:23;;;;;;;1.45;1.35;;;;;;;1.66;88.51;101032.84;5087818;28;20080;-70
2022/12/17 15:17:48;;;;;;;0.88;0.88;;;;;;;1.71;88.52;101016.84;5087859;28;20127;-68
2022/12/17 15:20:17;;;;;;;0.55;0.55;;;;;;;1.70;88.57;101017.66;5087478;28;20050;-67
2022/12/17 15:22:43;;;;;;;0.85;0.85;;;;;;;1.68;88.47;101016.72;5086842;28;20049;-67
2022/12/17 15:25:14;;;;;;;0.60;0.60;;;;;;;1.70;88.48;101022.78;5087230;28;20077;-67
2022/12/17 15:27:39;;;;;;;0.55;0.55;;;;;;;1.71;88.50;101006.59;5087556;28;20476;-68
2022/12/17 15:30:05;;;;;;;0.50;0.50;;;;;;;1.70;88.56;101019.34;5087479;28;20039;-68
2022/12/17 15:32:31;;;;;;;0.60;0.60;;;;;;;1.69;88.57;101023.56;5087230;28;20048;-69
2022/12/17 15:34:56;;;;;;;7.13;2.40;;;;;;;1.72;88.51;101035.63;5087278;28;20017;-69
2022/12/17 15:37:24;;;;;;;0.57;0.57;;;;;;;1.73;88.51;101032.25;5087474;28;20028;-68
2022/12/17 15:39:50;;;;;;;1.20;1.20;;;;;;;1.77;88.50;101021.34;5086913;28;20028;-67
2022/12/17 15:44:59;;;;;;;0.60;0.60;;;;;;;1.78;88.48;101029.88;5087174;28;20055;-68
2022/12/17 15:47:25;;;;;;;0.50;0.50;;;;;;;1.75;88.51;101020.41;5086004;28;20020;-68
2022/12/17 15:49:50;;;;;;;1.02;1.02;;;;;;;1.79;88.45;101023.94;5087056;28;20519;-69
2022/12/17 15:52:15;;;;;;;0.90;0.90;;;;;;;1.78;88.73;101028.19;5087364;28;20024;-69
2022/12/17 15:54:41;;;;;;;0.60;0.60;;;;;;;1.83;88.49;101034.38;5085692;28;20043;-69
2022/12/17 15:57:07;;;;;;;0.60;0.60;;;;;;;1.81;88.60;101028.31;5086928;28;20387;-69
2022/12/17 15:59:32;;;;;;;0.60;0.60;;;;;;;1.82;88.53;101029.19;5087133;28;20084;-68
2022/12/17 16:01:58;;;;;;;0.60;0.60;;;;;;;1.84;88.35;101028.41;5087002;28;20103;-69
2022/12/17 16:04:23;;;;;;;0.60;0.60;;;;;;;1.90;88.33;101029.47;5086857;28;20021;-69
2022/12/17 16:06:49;;;;;;;0.50;0.50;;;;;;;1.88;88.40;101037.09;5086790;28;20047;-70
2022/12/17 16:09:14;;;;;;;0.55;0.55;;;;;;;1.91;88.37;101037.22;5086783;28;20039;-67
2022/12/17 16:11:40;;;;;;;0.50;0.50;;;;;;;1.92;88.31;101027.81;5086548;28;20091;-69
2022/12/17 16:14:05;;;;;;;0.55;0.55;;;;;;;1.92;88.47;101007.34;5086702;28;20024;-70
2022/12/17 16:16:30;;;;;;;0.50;0.50;;;;;;;1.95;88.30;101021.13;5085413;28;20082;-69
2022/12/17 16:18:56;;;;;;;2.65;2.45;;;;;;;1.98;88.13;101017.81;5086839;28;20016;-70
2022/12/17 16:21:21;;;;;;;1.25;1.15;;;;;;;2.00;88.19;101023.00;5085007;28;20025;-70
2022/12/17 16:23:47;;;;;;;0.70;0.70;;;;;;;2.03;88.24;101018.00;5086380;28;20044;-69
2022/12/17 16:26:12;;;;;;;0.80;0.80;;;;;;;2.06;88.20;101030.91;5068100;28;20028;-71
2022/12/17 16:28:38;;;;;;;0.95;0.95;;;;;;;2.04;88.17;101033.41;5086589;28;20024;-68
2022/12/17 16:31:14;;;;;;;0.70;0.70;;;;;;;2.07;88.15;101032.66;5086433;28;20049;-68
2022/12/17 16:33:41;;;;;;;0.50;0.50;;;;;;;2.05;88.13;101030.03;5086038;28;20036;-69
2022/12/17 16:36:10;;;;;;;0.50;0.50;;;;;;;2.07;87.99;101032.66;5085847;28;20076;-69
2022/12/17 16:38:47;;;;;;;0.60;0.60;;;;;;;2.10;87.98;101037.88;5086169;28;20039;-69
2022/12/17 16:41:13;;;;;;;0.68;0.68;;;;;;;2.09;87.82;101020.78;5085862;28;20025;-68
2022/12/17 16:43:39;;;;;;;0.88;0.88;;;;;;;2.07;87.89;101013.03;5086175;28;20083;-69
2022/12/17 16:46:05;;;;;;;0.50;0.50;;;;;;;2.05;88.02;101017.22;5085987;28;20029;-70
2022/12/17 16:48:36;;;;;;;0.93;0.93;;;;;;;2.15;88.09;101030.38;5086265;28;20499;-68
2022/12/17 16:51:17;;;;;;;1.05;1.05;;;;;;;2.16;87.84;101026.97;5086058;28;20077;-67
2022/12/17 16:53:43;;;;;;;0.63;0.63;;;;;;;2.10;87.95;101032.75;5086150;28;20028;-69
2022/12/17 16:56:15;;;;;;;4.43;3.70;;;;;;;2.12;87.79;101035.38;5085794;28;20024;-68
2022/12/17 16:58:40;;;;;;;0.60;0.60;;;;;;;2.08;87.70;101029.25;5085901;28;20024;-68
2022/12/17 17:01:06;;;;;;;0.70;0.70;;;;;;;2.04;87.62;101029.97;5085815;28;20074;-68
2022/12/17 17:03:31;;;;;;;0.57;0.57;;;;;;;2.10;87.70;101035.31;5085797;28;20032;-67
2022/12/17 17:05:59;;;;;;;0.60;0.60;;;;;;;2.11;87.61;101039.63;5085925;28;20092;-68
2022/12/17 17:08:25;;;;;;;0.60;0.60;;;;;;;2.12;87.65;101048.19;5085820;28;20372;-68
2022/12/17 17:10:50;;;;;;;6.63;5.30;;;;;;;2.15;87.39;101040.63;5085373;28;20032;-67
2022/12/17 17:13:16;;;;;;;0.63;0.63;;;;;;;2.11;87.24;101034.50;5085836;28;20092;-68
2022/12/17 17:15:41;;;;;;;0.50;0.50;;;;;;;2.12;87.48;101038.81;5085555;28;20028;-66
2022/12/17 17:18:06;;;;;;;0.98;0.98;;;;;;;2.08;87.39;101025.03;5085663;28;20031;-66
2022/12/17 17:20:32;;;;;;;1.23;1.23;;;;;;;2.04;87.50;101038.53;5085470;28;20031;-66
2022/12/17 17:22:57;;;;;;;0.50;0.50;;;;;;;1.98;87.42;101039.16;5084080;28;20079;-66
2022/12/17 17:25:23;;;;;;;0.60;0.60;;;;;;;2.00;87.53;101033.25;5085276;28;20078;-65
2022/12/17 17:27:48;;;;;;;0.70;0.70;;;;;;;2.04;87.44;101053.03;5085694;28;20054;-65
2022/12/17 17:30:14;;;;;;;1.52;1.50;;;;;;;2.05;87.36;101039.41;5085396;28;20031;-65
2022/12/17 17:32:39;;;;;;;2.20;2.10;;;;;;;2.03;87.44;101041.03;5085694;28;20021;-65
2022/12/17 17:35:05;;;;;;;0.60;0.60;;;;;;;1.97;87.56;101046.78;5085479;28;20422;-66
2022/12/17 17:37:30;;;;;;;0.73;0.73;;;;;;;1.92;87.42;101040.63;5085636;28;20395;-65
2022/12/17 17:39:56;;;;;;;0.70;0.70;;;;;;;1.95;87.49;101036.50;5085173;28;20533;-66
2022/12/17 17:42:21;;;;;;;0.50;0.50;;;;;;;1.89;87.64;101041.38;5084180;28;20024;-65
2022/12/17 17:44:47;;;;;;;0.80;0.80;;;;;;;1.81;87.65;101038.53;5085285;28;20030;-65
2022/12/17 17:47:13;;;;;;;0.50;0.50;;;;;;;1.86;87.46;101043.84;5089018;28;20042;-66
2022/12/17 17:49:41;;;;;;;0.70;0.70;;;;;;;1.83;87.52;101047.16;5089392;28;20024;-66
2022/12/17 17:52:07;;;;;;;0.80;0.80;;;;;;;1.81;87.60;101040.22;5088146;28;20051;-65
2022/12/17 17:54:32;;;;;;;0.55;0.55;;;;;;;1.78;87.74;101041.00;5088362;28;20060;-66
2022/12/17 17:56:57;;;;;;;0.60;0.60;;;;;;;1.80;87.84;101038.50;5089223;28;20017;-66
2022/12/17 17:59:23;;;;;;;0.60;0.60;;;;;;;1.81;87.75;101048.78;5087948;28;20086;-65
2022/12/17 18:01:50;;;;;;;0.57;0.57;;;;;;;1.70;87.77;101034.69;5089436;28;20042;-65
2022/12/17 18:04:19;;;;;;;0.50;0.50;;;;;;;1.69;87.58;101041.50;5089346;28;20025;-64
2022/12/17 18:06:46;;;;;;;2.50;2.40;;;;;;;1.65;87.73;101037.09;5088913;28;20055;-64
2022/12/17 18:09:11;;;;;;;2.03;1.60;;;;;;;1.62;87.50;101031.84;5089145;28;20024;-66
2022/12/17 18:11:39;;;;;;;0.93;0.93;;;;;;;1.63;87.59;101031.03;5088728;28;20029;-64
2022/12/17 18:14:06;;;;;;;0.60;0.60;;;;;;;1.63;87.48;101050.66;5089001;28;20515;-65
2022/12/17 18:16:40;;;;;;;0.50;0.50;;;;;;;1.59;87.52;101047.97;5088885;28;20027;-68
2022/12/17 18:19:07;;;;;;;2.90;2.78;;;;;;;1.55;87.56;101052.91;5088797;28;20033;-66
2022/12/17 18:21:33;;;;;;;0.50;0.50;;;;;;;1.55;87.52;101035.00;5087447;28;20033;-64
2022/12/17 18:24:02;;;;;;;0.90;0.90;;;;;;;1.52;87.52;101050.22;5088625;28;20049;-65
2022/12/17 18:26:30;;;;;;;0.50;0.50;;;;;;;1.51;87.72;101045.91;5088444;28;20040;-65
2022/12/17 18:28:57;;;;;;;0.50;0.50;;;;;;;1.53;88.14;101052.84;5088577;28;20024;-66
2022/12/17 18:31:24;;;;;;;0.60;0.60;;;;;;;1.54;87.78;101056.25;5088619;28;20028;-66
2022/12/17 18:33:56;;;;;;;4.80;1.60;;;;;;;1.57;87.76;101059.81;5088551;28;20107;-66
2022/12/17 18:36:24;;;;;;;2.00;1.90;;;;;;;1.55;87.72;101053.75;5088500;28;20024;-66
2022/12/17 18:39:00;;;;;;;0.55;0.55;;;;;;;1.59;87.65;101041.97;5088242;28;20025;-67
2022/12/17 18:44:12;;;;;;;0.93;0.93;;;;;;;1.60;87.66;101057.38;5088805;28;20031;-67
2022/12/17 18:46:38;;;;;;;0.60;0.60;;;;;;;1.52;87.79;101043.41;5088403;28;20031;-67
2022/12/17 18:49:06;;;;;;;0.50;0.50;;;;;;;1.56;87.88;101058.09;5088341;28;20020;-66
2022/12/17 18:51:34;;;;;;;0.52;0.52;;;;;;;1.58;87.85;101060.72;5086936;28;20040;-66
2022/12/17 18:54:01;;;;;;;0.60;0.60;;;;;;;1.56;87.66;101054.66;5088383;28;20027;-66
2022/12/17 18:56:27;;;;;;;0.50;0.50;;;;;;;1.54;87.77;101066.50;5088015;28;20044;-66
2022/12/17 18:58:55;;;;;;;0.60;0.60;;;;;;;1.57;87.79;101064.06;5087152;28;20024;-66
2022/12/17 19:01:26;;;;;;;0.60;0.60;;;;;;;1.53;87.80;101070.75;5086784;28;20024;-66
2022/12/17 19:03:53;;;;;;;0.75;0.75;;;;;;;1.52;87.71;101052.78;5088095;28;20052;-69
2022/12/17 19:06:20;;;;;;;0.50;0.50;;;;;;;1.45;87.74;101055.09;5087856;28;20032;-67
2022/12/17 19:08:46;;;;;;;0.63;0.63;;;;;;;1.53;87.63;101073.31;5086678;28;20031;-66
2022/12/17 19:11:12;;;;;;;0.70;0.70;;;;;;;1.52;87.92;101073.25;5087591;28;20028;-66
2022/12/17 19:13:38;;;;;;;0.60;0.60;;;;;;;1.53;87.57;101077.56;5087924;28;20016;-68
2022/12/17 19:16:10;;;;;;;0.80;0.80;;;;;;;1.44;87.61;101073.81;5087674;28;20031;-66
2022/12/17 19:18:37;;;;;;;1.35;1.35;;;;;;;1.49;87.66;101074.00;5086601;28;20021;-66
2022/12/17 19:21:03;;;;;;;0.50;0.50;;;;;;;1.44;87.50;101075.50;5086266;28;20024;-68
2022/12/17 19:23:29;;;;;;;0.60;0.60;;;;;;;1.46;87.46;101067.09;5087564;28;20059;-65
2022/12/17 19:25:55;;;;;;;0.60;0.60;;;;;;;1.46;87.55;101072.19;5087348;28;20052;-67
2022/12/17 19:28:21;;;;;;;7.78;4.85;;;;;;;1.44;87.70;101071.25;5087574;28;20048;-67
2022/12/17 19:30:46;;;;;;;0.70;0.70;;;;;;;1.42;87.65;101069.47;5087402;28;20027;-68
2022/12/17 19:33:12;;;;;;;0.50;0.50;;;;;;;1.38;87.62;101068.47;5086280;28;20399;-69
2022/12/17 19:35:37;;;;;;;0.50;0.50;;;;;;;1.36;87.86;101077.75;5087326;28;20021;-66
2022/12/17 19:38:03;;;;;;;1.38;1.33;;;;;;;1.38;87.86;101071.00;5087543;28;20043;-68
2022/12/17 19:40:28;;;;;;;0.50;0.50;;;;;;;1.32;87.80;101084.44;5086998;28;20028;-66
2022/12/17 19:42:54;;;;;;;2.13;1.15;;;;;;;1.30;87.90;101074.94;5086009;28;20044;-67
2022/12/17 19:45:20;;;;;;;0.50;0.50;;;;;;;1.26;88.12;101075.66;5087458;28;20017;-66
2022/12/17 19:47:46;;;;;;;0.52;0.52;;;;;;;1.29;87.92;101070.66;5087152;28;20413;-66
2022/12/17 19:50:11;;;;;;;3.53;3.28;;;;;;;1.27;87.64;101050.13;5087156;28;20034;-65
2022/12/17 19:52:37;;;;;;;1.15;1.15;;;;;;;1.29;88.08;101068.09;5087309;28;20020;-67
2022/12/17 19:55:03;;;;;;;0.68;0.68;;;;;;;1.23;88.08;101061.91;5086676;28;20025;-68
2022/12/17 19:57:28;;;;;;;0.50;0.50;;;;;;;1.26;88.07;101076.53;5087061;28;20147;-66
2022/12/17 19:59:54;;;;;;;0.50;0.50;;;;;;;1.23;88.36;101058.50;5085726;28;20059;-66
2022/12/17 20:02:19;;;;;;;0.57;0.57;;;;;;;1.22;88.46;101060.16;5085576;28;20048;-66
2022/12/17 20:04:44;;;;;;;1.25;1.25;;;;;;;1.22;88.51;101055.06;5086888;28;20088;-65
2022/12/17 20:07:10;;;;;;;0.60;0.60;;;;;;;1.25;88.60;101058.56;5086916;28;20024;-67
2022/12/17 20:09:35;;;;;;;3.35;2.17;;;;;;;1.26;88.62;101067.97;5086675;28;20025;-67
2022/12/17 20:12:01;;;;;;;0.57;0.57;;;;;;;1.29;88.50;101071.53;5086650;28;20033;-66
2022/12/17 20:14:27;;;;;;;0.50;0.50;;;;;;;1.28;88.53;101058.69;5086811;28;20035;-65
2022/12/17 20:16:58;;;;;;;0.93;0.93;;;;;;;1.29;88.66;101052.75;5086724;28;20032;-66
2022/12/17 20:19:32;;;;;;;0.55;0.55;;;;;;;1.31;88.64;101069.03;5086785;28;20044;-67
2022/12/17 20:22:05;;;;;;;0.50;0.50;;;;;;;1.31;88.73;101063.91;5086628;28;20017;-66
2022/12/17 20:24:31;;;;;;;0.65;0.65;;;;;;;1.31;88.76;101056.25;5085233;28;20045;-65
2022/12/17 20:26:58;;;;;;;0.50;0.50;;;;;;;1.29;88.95;101062.97;5086134;28;20020;-67
2022/12/17 20:29:24;;;;;;;3.08;2.88;;;;;;;1.27;88.92;101062.03;5086399;28;20025;-67
2022/12/17 20:31:50;;;;;;;0.80;0.80;;;;;;;1.31;89.11;101061.38;5086509;28;20031;-68
2022/12/17 20:34:17;;;;;;;0.50;0.50;;;;;;;1.34;89.16;101072.56;5084996;28;20052;-68
2022/12/17 20:36:43;;;;;;;0.55;0.55;;;;;;;1.39;89.28;101072.75;5086027;28;20047;-68
2022/12/17 20:39:10;;;;;;;3.15;1.90;;;;;;;1.45;89.17;101077.25;5086109;28;20028;-67
2022/12/17 20:41:36;;;;;;;0.57;0.57;;;;;;;1.43;89.41;101066.97;5085972;28;20042;-67
2022/12/17 20:44:04;;;;;;;0.60;0.60;;;;;;;1.53;89.46;101080.13;5086263;28;20032;-66
2022/12/17 20:46:30;;;;;;;1.77;1.67;;;;;;;1.49;89.40;101076.56;5084737;28;20036;-67
2022/12/17 20:48:58;;;;;;;3.22;3.03;;;;;;;1.59;89.27;101086.38;5085985;28;20074;-67
2022/12/17 20:51:25;;;;;;;1.35;1.35;;;;;;;1.53;89.18;101073.31;5085986;28;20063;-69
2022/12/17 20:53:51;;;;;;;0.50;0.50;;;;;;;1.50;88.88;101086.00;5086130;28;20021;-68
2022/12/17 20:56:23;;;;;;;5.88;3.85;;;;;;;1.51;88.87;101084.28;5085812;28;20020;-67
2022/12/17 20:58:52;;;;;;;0.60;0.60;;;;;;;1.50;88.78;101091.13;5086112;28;20020;-71
2022/12/17 21:01:20;;;;;;;1.27;1.23;;;;;;;1.49;88.58;101091.91;5085589;28;20050;-70
2022/12/17 21:03:48;;;;;;;0.90;0.90;;;;;;;1.42;88.66;101088.22;5085829;28;20021;-69
2022/12/17 21:06:16;;;;;;;0.60;0.60;;;;;;;1.52;88.30;101093.75;5085727;28;20020;-67
2022/12/17 21:08:43;;;;;;;2.67;2.50;;;;;;;1.46;88.42;101087.56;5085919;28;20160;-69
2022/12/17 21:11:08;;;;;;;1.02;1.02;;;;;;;1.53;88.43;101098.03;5085399;28;20464;-68
2022/12/17 21:13:34;;;;;;;0.75;0.75;;;;;;;1.50;88.45;101086.00;5085881;28;20031;-70
2022/12/17 21:16:03;;;;;;;4.00;3.70;;;;;;;1.38;88.59;101096.59;5084385;28;20029;-70
2022/12/17 21:18:30;;;;;;;1.45;1.42;;;;;;;1.44;88.72;101099.41;5085666;28;20448;-68
2022/12/17 21:21:00;;;;;;;1.90;1.80;;;;;;;1.43;88.68;101095.13;5085057;28;20031;-68
2022/12/17 21:23:26;;;;;;;0.50;0.50;;;;;;;1.42;88.67;101088.22;5084063;28;20048;-67
2022/12/17 21:26:15;;;;;;;0.55;0.55;;;;;;;1.32;88.82;101093.81;5085355;28;20175;-69
2022/12/17 21:28:43;;;;;;;0.60;0.60;;;;;;;1.40;88.65;101107.78;5085857;28;20039;-67
2022/12/17 21:31:29;;;;;;;1.75;1.65;;;;;;;1.46;88.60;101100.34;5084028;28;20032;-69
2022/12/17 21:33:56;;;;;;;0.55;0.55;;;;;;;1.44;88.72;101109.66;5085495;28;20028;-68
2022/12/17 21:36:23;;;;;;;1.30;1.30;;;;;;;1.39;88.78;101098.34;5085391;28;20032;-69
2022/12/17 21:38:50;;;;;;;0.70;0.70;;;;;;;1.42;88.94;101110.41;5084303;28;20032;-68
2022/12/17 21:41:19;;;;;;;0.63;0.63;;;;;;;1.40;88.67;101115.47;5083761;28;20024;-68
2022/12/17 21:43:44;;;;;;;0.75;0.75;;;;;;;1.38;88.63;101094.03;5085454;28;20029;-68
2022/12/17 21:46:11;;;;;;;5.07;3.90;;;;;;;1.38;88.81;101106.84;5085158;28;20020;-68
2022/12/17 21:48:40;;;;;;;0.60;0.60;;;;;;;1.44;88.69;101101.97;5084018;28;20028;-68
2022/12/17 21:51:07;;;;;;;0.70;0.70;;;;;;;1.40;88.93;101112.91;5085255;28;20025;-69
2022/12/17 21:53:33;;;;;;;0.60;0.60;;;;;;;1.42;88.82;101092.50;5085417;28;20332;-69
2022/12/17 21:56:07;;;;;;;0.60;0.60;;;;;;;1.39;88.71;101090.66;5085127;28;20361;-69
2022/12/17 21:58:33;;;;;;;1.85;1.75;;;;;;;1.39;88.58;101116.25;5085519;28;20108;-67
2022/12/17 22:01:11;;;;;;;0.60;0.60;;;;;;;1.35;88.71;101094.81;5084898;28;20054;-67
2022/12/17 22:03:37;;;;;;;0.63;0.63;;;;;;;1.41;88.72;101096.72;5083998;28;20025;-69
2022/12/17 22:06:12;;;;;;;1.13;1.13;;;;;;;1.47;88.31;101091.84;5085119;28;20114;-67
2022/12/17 22:08:38;;;;;;;1.00;1.00;;;;;;;1.38;88.73;101083.81;5083844;28;20024;-67
2022/12/17 22:11:19;;;;;;;0.60;0.60;;;;;;;1.48;88.71;101085.94;5084901;28;20020;-67
2022/12/17 22:14:01;;;;;;;1.88;1.77;;;;;;;1.53;88.29;101110.84;5085157;28;20021;-66
2022/12/17 22:16:34;;;;;;;0.50;0.50;;;;;;;1.54;88.14;101107.44;5083708;28;20050;-68
2022/12/17 22:19:01;;;;;;;0.60;0.60;;;;;;;1.54;88.31;101105.78;5085121;28;20027;-67
2022/12/17 22:21:26;;;;;;;0.80;0.80;;;;;;;1.56;88.51;101110.94;5084968;28;20472;-68
2022/12/17 22:23:52;;;;;;;0.60;0.60;;;;;;;1.56;88.35;101096.47;5084792;28;20055;-66
2022/12/17 22:26:18;;;;;;;0.60;0.60;;;;;;;1.56;88.28;101116.06;5084551;28;20035;-67
2022/12/17 22:28:48;;;;;;;0.52;0.52;;;;;;;1.52;88.33;101102.28;5084942;28;20052;-67
2022/12/17 22:34:05;;;;;;;0.60;0.60;;;;;;;1.46;88.11;101108.03;5088049;28;20082;-65
2022/12/17 22:36:32;;;;;;;1.08;1.08;;;;;;;1.51;88.18;101102.22;5088509;28;20025;-66
2022/12/17 22:39:03;;;;;;;0.60;0.60;;;;;;;1.50;88.17;101095.34;5088600;28;20020;-65
2022/12/17 22:44:13;;;;;;;0.60;0.60;;;;;;;1.46;88.38;101095.22;5088578;28;20089;-65
2022/12/17 22:46:38;;;;;;;0.60;0.60;;;;;;;1.52;88.27;101097.16;5088358;28;20021;-64
2022/12/17 22:49:03;;;;;;;0.50;0.50;;;;;;;1.35;88.12;101071.78;5088591;28;20023;-64
2022/12/17 22:51:29;;;;;;;0.50;0.50;;;;;;;1.47;88.17;101102.09;5088222;28;20044;-64
2022/12/17 22:53:58;;;;;;;3.72;3.53;;;;;;;1.44;88.21;101080.63;5088402;28;20094;-65
2022/12/17 22:56:24;;;;;;;0.50;0.50;;;;;;;1.53;88.15;101085.25;5088058;28;20084;-65
2022/12/17 22:58:49;;;;;;;0.60;0.60;;;;;;;1.52;88.26;101098.84;5088371;28;20081;-64
2022/12/17 23:01:14;;;;;;;0.90;0.90;;;;;;;1.55;88.16;101094.72;5088035;28;20029;-64
2022/12/17 23:03:40;;;;;;;0.50;0.50;;;;;;;1.54;88.07;101099.78;5088189;28;20456;-62
2022/12/17 23:06:12;;;;;;;0.80;0.80;;;;;;;1.48;88.23;101110.66;5088002;28;20024;-64
2022/12/17 23:08:37;;;;;;;1.50;1.50;;;;;;;1.50;88.23;101096.25;5088088;28;20031;-64
2022/12/17 23:11:12;;;;;;;0.70;0.70;;;;;;;1.51;88.18;101097.97;5087674;28;20028;-65
2022/12/17 23:13:38;;;;;;;0.60;0.60;;;;;;;1.52;88.06;101081.78;5087949;28;20460;-64
2022/12/17 23:16:04;;;;;;;0.50;0.50;;;;;;;1.51;88.19;101092.84;5086453;28;20020;-64
2022/12/17 23:18:31;;;;;;;0.60;0.60;;;;;;;1.50;88.13;101085.13;5087965;28;20028;-64
2022/12/17 23:21:06;;;;;;;0.50;0.50;;;;;;;1.58;87.92;101096.53;5087725;28;20028;-64
2022/12/17 23:23:32;;;;;;;0.50;0.50;;;;;;;1.52;88.27;101086.06;5087629;28;20055;-66
2022/12/17 23:25:57;;;;;;;0.93;0.93;;;;;;;1.51;88.49;101094.53;5087227;28;20032;-65
2022/12/17 23:28:23;;;;;;;0.50;0.50;;;;;;;1.57;87.99;101097.34;5087606;28;20385;-65
2022/12/17 23:30:48;;;;;;;0.50;0.50;;;;;;;1.36;88.26;101062.41;5087569;28;20032;-65
2022/12/17 23:33:14;;;;;;;1.02;1.02;;;;;;;1.48;88.56;101088.50;5087596;28;20047;-65
2022/12/17 23:35:39;;;;;;;0.50;0.50;;;;;;;1.47;88.75;101091.84;5087462;28;20032;-65
2022/12/17 23:38:04;;;;;;;0.60;0.60;;;;;;;1.50;88.67;101092.78;5087612;28;20036;-65
2022/12/17 23:40:30;;;;;;;2.55;2.35;;;;;;;1.61;88.15;101086.44;5086953;28;20031;-64
2022/12/17 23:42:56;;;;;;;0.60;0.60;;;;;;;1.59;88.24;101095.72;5087384;28;20048;-66
2022/12/17 23:45:21;;;;;;;0.50;0.50;;;;;;;1.52;88.62;101098.84;5087119;28;20028;-65
2022/12/17 23:47:47;;;;;;;0.60;0.60;;;;;;;1.54;88.53;101097.22;5087210;28;20472;-65
2022/12/17 23:50:13;;;;;;;2.00;1.85;;;;;;;1.59;88.31;101088.94;5087135;28;20567;-65
2022/12/17 23:52:38;;;;;;;0.57;0.57;;;;;;;1.58;88.16;101089.72;5087249;28;20025;-65
2022/12/17 23:55:04;;;;;;;0.60;0.60;;;;;;;1.54;88.64;101095.53;5087182;28;20031;-65
2022/12/17 23:57:30;;;;;;;0.60;0.60;;;;;;;1.52;88.83;101089.47;5086884;28;20048;-66
2022/12/17 23:59:55;;;;;;;0.50;0.50;;;;;;;1.49;88.99;101079.13;5086883;28;20464;-64
